KHDC

Hammond Northshore Regional Airport

Hammond, Louisiana, USA
METAR KHDC 171355Z AUTO 00000KT 10SM CLR 07/07 A3030 RMK AO2
Observed Flight Rules
Dec-17 @ 13:55 UTC (33 minutes ago) Visual Flight Rules
Visibility Clouds
10 miles
  • Clear skies
Temperatures Readings
Current 7°C / 45°F
Dewpoint 7°C / 45°F
Humidity 100%
Altimeter 30.3" Hg
Pressure 1026 hPa
Elevation 13
METAR KHDC 171355Z AUTO 00000KT 10SM CLR 07/07 A3030 RMK AO2
Observed Flight Rules
Dec-17 @ 13:55 UTC
(33 minutes ago)
VFR
Clouds
  • Clear skies
Temperature Dewpoint
7°C / 45°F 7°C / 45°F
Humidity Altimeter Pressure
100% 30.3" Hg 1026 hPa